Time;durP1;ratioP1;P1;durP2;ratioP2;P2;SDS_P1;SDS_P2;PMS_P1;PMS_P2;Temp;Humidity;BMP_temperature;BMP_pressure;BME280_temperature;BME280_humidity;BME280_pressure;Samples;Min_cycle;Max_cycle;Signal;HPM_P1;HPM_P2
2023/05/20 00:01:08;;;;;;;7.10;5.20;;;14.30;99.90;;;;;;5078294;28;20495;-59
2023/05/20 00:03:34;;;;;;;6.65;5.97;;;14.40;99.90;;;;;;5074529;28;20024;-59
2023/05/20 00:05:59;;;;;;;6.22;5.68;;;14.30;99.90;;;;;;5078113;28;20221;-60
2023/05/20 00:08:25;;;;;;;6.72;5.80;;;14.40;99.90;;;;;;5077904;28;20035;-60
2023/05/20 00:10:51;;;;;;;6.60;6.00;;;14.30;99.90;;;;;;5076047;28;20028;-59
2023/05/20 00:13:16;;;;;;;5.72;5.22;;;14.40;99.90;;;;;;5077469;28;20095;-60
2023/05/20 00:15:42;;;;;;;5.75;5.25;;;14.30;99.90;;;;;;5074236;28;20031;-59
2023/05/20 00:18:07;;;;;;;6.80;5.90;;;14.30;99.90;;;;;;5062870;28;20020;-59
2023/05/20 00:20:33;;;;;;;8.05;5.55;;;14.30;99.90;;;;;;5072653;28;20039;-60
2023/05/20 00:22:59;;;;;;;6.75;6.15;;;14.30;99.90;;;;;;5079636;28;20106;-60
2023/05/20 00:25:25;;;;;;;6.78;6.18;;;14.30;99.90;;;;;;5079053;28;20452;-60
2023/05/20 00:27:50;;;;;;;6.53;5.93;;;14.40;99.90;;;;;;5076161;28;20504;-59
2023/05/20 00:30:16;;;;;;;6.93;6.43;;;14.40;99.90;;;;;;5077022;28;20035;-59
2023/05/20 00:32:42;;;;;;;6.60;5.90;;;14.40;99.90;;;;;;5075580;28;20052;-60
2023/05/20 00:35:08;;;;;;;7.00;6.40;;;14.40;99.90;;;;;;5075417;28;20030;-59
2023/05/20 00:37:33;;;;;;;6.35;5.85;;;14.40;99.90;;;;;;5058818;28;20485;-60
2023/05/20 00:39:59;;;;;;;7.82;6.22;;;14.30;99.90;;;;;;5076940;28;20028;-59
2023/05/20 00:42:27;;;;;;;7.00;6.30;;;14.30;99.90;;;;;;5075483;28;20020;-59
2023/05/20 00:44:53;;;;;;;6.53;5.93;;;14.40;99.90;;;;;;5077404;28;20040;-59
2023/05/20 00:47:22;;;;;;;6.72;6.07;;;14.40;99.90;;;;;;5079031;28;20820;-60
2023/05/20 00:49:49;;;;;;;7.00;6.35;;;14.40;99.90;;;;;;5080109;28;20032;-61
2023/05/20 00:52:17;;;;;;;7.72;7.03;;;14.30;99.90;;;;;;5059188;28;20488;-59
2023/05/20 00:54:43;;;;;;;7.60;5.85;;;14.30;99.90;;;;;;5078817;28;20040;-59
2023/05/20 00:57:09;;;;;;;6.20;5.60;;;14.30;99.90;;;;;;5056713;28;20374;-59
2023/05/20 00:59:36;;;;;;;6.40;5.80;;;14.30;99.90;;;;;;5077316;28;20444;-58
2023/05/20 01:02:03;;;;;;;7.07;6.43;;;14.30;99.90;;;;;;5074626;28;20021;-59
2023/05/20 01:04:29;;;;;;;7.18;5.78;;;14.30;99.90;;;;;;5078626;28;20035;-58
2023/05/20 01:06:56;;;;;;;7.18;6.47;;;14.30;99.90;;;;;;5074057;28;20515;-59
2023/05/20 01:09:23;;;;;;;6.40;5.90;;;14.30;99.90;;;;;;5073166;28;20562;-58
2023/05/20 01:12:15;;;;;;;7.68;6.60;;;14.20;99.90;;;;;;5078406;28;20040;-58
2023/05/20 01:15:05;;;;;;;6.88;6.22;;;14.30;99.90;;;;;;5040089;28;20036;-60
2023/05/20 01:17:32;;;;;;;7.03;6.43;;;14.20;99.90;;;;;;5077321;28;20024;-59
2023/05/20 01:20:01;;;;;;;7.13;6.53;;;14.20;99.90;;;;;;5073952;28;20028;-58
2023/05/20 01:22:27;;;;;;;7.45;6.85;;;14.20;99.90;;;;;;5081812;28;20025;-59
2023/05/20 01:24:53;;;;;;;7.63;6.45;;;14.10;99.90;;;;;;5080232;28;20037;-59
2023/05/20 01:27:21;;;;;;;7.95;7.25;;;14.10;99.90;;;;;;5075097;28;20081;-60
2023/05/20 01:29:49;;;;;;;8.00;7.35;;;14.10;99.90;;;;;;5076819;28;20493;-60
2023/05/20 01:32:31;;;;;;;7.82;7.13;;;14.00;99.90;;;;;;5076786;28;20053;-59
2023/05/20 01:34:58;;;;;;;7.97;7.38;;;14.00;99.90;;;;;;5077335;28;20036;-58
2023/05/20 01:37:26;;;;;;;7.18;6.57;;;14.00;99.90;;;;;;5077172;28;20066;-60
2023/05/20 01:39:53;;;;;;;8.18;7.53;;;14.00;99.90;;;;;;5075631;28;20036;-59
2023/05/20 01:42:20;;;;;;;7.82;7.10;;;14.00;99.90;;;;;;5076573;28;20025;-60
2023/05/20 01:44:46;;;;;;;7.85;7.15;;;14.00;99.90;;;;;;5078909;28;20036;-60
2023/05/20 01:47:12;;;;;;;8.32;7.50;;;14.00;99.90;;;;;;5079095;28;20077;-59
2023/05/20 01:49:37;;;;;;;7.47;6.88;;;14.00;99.90;;;;;;5078709;28;21189;-59
2023/05/20 01:52:03;;;;;;;7.97;7.22;;;14.00;99.90;;;;;;5081189;28;20028;-59
2023/05/20 01:54:29;;;;;;;8.32;7.63;;;13.90;99.90;;;;;;5078507;28;20063;-60
2023/05/20 01:56:55;;;;;;;8.40;7.70;;;13.90;99.90;;;;;;5078891;28;20039;-59
2023/05/20 01:59:20;;;;;;;7.60;7.00;;;14.00;99.90;;;;;;5084591;28;20036;-59
2023/05/20 02:01:46;;;;;;;8.55;7.75;;;14.00;99.90;;;;;;5077727;28;20166;-60
2023/05/20 02:04:12;;;;;;;9.60;8.57;;;13.90;99.90;;;;;;5080499;28;20031;-60
2023/05/20 02:06:37;;;;;;;9.50;8.60;;;14.00;99.90;;;;;;5078214;28;20066;-59
2023/05/20 02:09:03;;;;;;;9.70;8.85;;;14.00;99.90;;;;;;5079010;28;20036;-60
2023/05/20 02:11:29;;;;;;;8.30;7.60;;;14.00;99.90;;;;;;5078888;28;20028;-60
2023/05/20 02:13:55;;;;;;;9.85;8.98;;;14.00;99.90;;;;;;5077862;28;20079;-60
2023/05/20 02:16:21;;;;;;;8.95;8.18;;;14.00;99.90;;;;;;5078614;28;20369;-59
2023/05/20 02:18:46;;;;;;;9.63;8.68;;;14.00;99.90;;;;;;5078579;28;20115;-59
2023/05/20 02:21:12;;;;;;;9.38;8.57;;;13.90;99.90;;;;;;5081549;28;20377;-60
2023/05/20 02:23:37;;;;;;;9.48;8.57;;;13.80;99.90;;;;;;5081992;28;20059;-59
2023/05/20 02:26:03;;;;;;;10.65;8.40;;;13.80;99.90;;;;;;5083485;28;20040;-60
2023/05/20 02:28:29;;;;;;;8.70;7.85;;;13.90;99.90;;;;;;5080081;28;20028;-58
2023/05/20 02:30:54;;;;;;;9.27;8.55;;;13.80;99.90;;;;;;5078750;28;20387;-59
2023/05/20 02:33:20;;;;;;;9.75;8.80;;;13.80;99.90;;;;;;5081694;28;20029;-60
2023/05/20 02:35:45;;;;;;;9.57;8.48;;;13.90;99.90;;;;;;5080389;28;20086;-58
2023/05/20 02:38:12;;;;;;;9.52;8.55;;;13.90;99.90;;;;;;5081566;28;20032;-58
2023/05/20 02:40:37;;;;;;;10.02;9.13;;;13.90;99.90;;;;;;5080741;28;20047;-60
2023/05/20 02:43:03;;;;;;;9.52;8.45;;;13.90;99.90;;;;;;5080182;28;20046;-60
2023/05/20 02:45:29;;;;;;;10.35;9.45;;;13.90;99.90;;;;;;5075771;28;20025;-60
2023/05/20 02:47:55;;;;;;;10.00;9.15;;;13.90;99.90;;;;;;5078760;28;20024;-58
2023/05/20 02:50:21;;;;;;;10.55;9.65;;;14.00;99.90;;;;;;5081490;28;20602;-60
2023/05/20 02:52:46;;;;;;;9.02;8.32;;;14.00;99.90;;;;;;5075627;28;20024;-59
2023/05/20 02:55:12;;;;;;;11.00;9.88;;;14.00;99.90;;;;;;5080517;28;20027;-60
2023/05/20 02:57:38;;;;;;;11.27;10.20;;;14.00;99.90;;;;;;5079635;28;20472;-59
2023/05/20 03:00:06;;;;;;;10.05;9.18;;;14.00;99.90;;;;;;5078262;28;20097;-60
2023/05/20 03:02:32;;;;;;;10.10;9.30;;;14.00;99.90;;;;;;5080632;28;20123;-60
2023/05/20 03:04:57;;;;;;;11.75;9.13;;;14.00;99.90;;;;;;5077504;28;20067;-59
2023/05/20 03:07:23;;;;;;;10.52;9.73;;;14.00;99.90;;;;;;5073817;28;20846;-59
2023/05/20 03:09:49;;;;;;;10.70;9.80;;;14.00;99.90;;;;;;5080000;28;20054;-58
2023/05/20 03:12:15;;;;;;;10.63;9.55;;;14.00;99.90;;;;;;5077277;28;20036;-60
2023/05/20 03:14:41;;;;;;;11.05;10.10;;;14.00;99.90;;;;;;5079135;28;20581;-59
2023/05/20 03:17:07;;;;;;;11.73;10.73;;;13.90;99.90;;;;;;5077067;28;20036;-59
2023/05/20 03:19:33;;;;;;;10.77;9.80;;;13.90;99.90;;;;;;5077756;28;20039;-58
2023/05/20 03:21:59;;;;;;;11.82;10.90;;;13.90;99.90;;;;;;5065921;28;20032;-60
2023/05/20 03:24:25;;;;;;;11.95;10.82;;;13.90;99.90;;;;;;5075739;28;20031;-59
2023/05/20 03:26:51;;;;;;;11.55;10.40;;;13.90;99.90;;;;;;5079409;28;20021;-61
2023/05/20 03:29:20;;;;;;;12.27;11.07;;;13.90;99.90;;;;;;5082295;28;20028;-59
2023/05/20 03:31:45;;;;;;;12.52;11.25;;;13.90;99.90;;;;;;5075467;28;20058;-59
2023/05/20 03:34:11;;;;;;;12.75;11.73;;;13.90;99.90;;;;;;5075802;28;20012;-58
2023/05/20 03:36:36;;;;;;;13.52;12.23;;;13.90;99.90;;;;;;5080844;28;20028;-59
2023/05/20 03:39:03;;;;;;;12.35;11.30;;;13.90;99.90;;;;;;5078112;28;20408;-61
2023/05/20 03:41:28;;;;;;;12.85;11.68;;;13.90;99.90;;;;;;5078528;28;20032;-60
2023/05/20 03:43:54;;;;;;;12.80;11.60;;;13.90;99.90;;;;;;5083612;28;20036;-58
2023/05/20 03:46:20;;;;;;;13.07;11.95;;;13.90;99.90;;;;;;5076475;28;20044;-58
2023/05/20 03:48:45;;;;;;;13.68;12.38;;;13.90;99.90;;;;;;5076527;28;20024;-60
2023/05/20 03:51:11;;;;;;;12.68;11.55;;;13.90;99.90;;;;;;5073770;28;20032;-58
2023/05/20 03:53:36;;;;;;;13.93;12.73;;;13.90;99.90;;;;;;5076048;28;20103;-59
2023/05/20 03:56:02;;;;;;;12.98;11.98;;;13.90;99.90;;;;;;5076419;28;20395;-60
2023/05/20 03:58:28;;;;;;;13.15;12.05;;;13.90;99.90;;;;;;5077050;28;20047;-59
2023/05/20 04:00:54;;;;;;;13.25;12.10;;;13.90;99.90;;;;;;5078773;28;20443;-59
2023/05/20 04:03:21;;;;;;;14.25;13.05;;;13.90;99.90;;;;;;5077758;28;20028;-60
2023/05/20 04:05:47;;;;;;;13.98;12.68;;;13.90;99.90;;;;;;5075921;28;20021;-60
2023/05/20 04:08:13;;;;;;;13.82;12.73;;;13.90;99.90;;;;;;5079459;28;20031;-59
2023/05/20 04:10:41;;;;;;;14.40;11.80;;;13.90;99.90;;;;;;5080071;28;20412;-59
2023/05/20 04:13:07;;;;;;;18.77;11.88;;;13.90;99.90;;;;;;5080239;28;20009;-59
2023/05/20 04:15:37;;;;;;;13.15;11.95;;;14.00;99.90;;;;;;5077752;28;20039;-60
2023/05/20 04:18:04;;;;;;;14.57;13.38;;;14.00;99.90;;;;;;5076440;28;20030;-59
2023/05/20 04:20:30;;;;;;;13.30;12.20;;;14.00;99.90;;;;;;5075874;28;20035;-60
2023/05/20 04:22:56;;;;;;;14.52;13.20;;;14.00;99.90;;;;;;5073711;28;20032;-59
2023/05/20 04:25:22;;;;;;;13.48;12.25;;;14.00;99.90;;;;;;5077442;28;20103;-59
2023/05/20 04:27:48;;;;;;;13.98;12.45;;;14.00;99.90;;;;;;5071327;28;20028;-58
2023/05/20 04:30:17;;;;;;;13.43;12.32;;;14.00;99.90;;;;;;5074416;28;20032;-60
2023/05/20 04:32:43;;;;;;;12.75;11.50;;;14.00;99.90;;;;;;5076511;28;20024;-59
2023/05/20 04:35:10;;;;;;;14.35;12.90;;;14.00;99.90;;;;;;5076924;28;20043;-59
2023/05/20 04:37:37;;;;;;;12.25;11.18;;;14.00;99.90;;;;;;5079586;28;20481;-60
2023/05/20 04:40:03;;;;;;;12.55;11.43;;;14.00;99.90;;;;;;5077314;28;20020;-59
2023/05/20 04:42:29;;;;;;;12.73;11.52;;;14.00;99.90;;;;;;5079049;28;20531;-59
2023/05/20 04:44:55;;;;;;;13.73;12.43;;;14.10;99.90;;;;;;5077265;28;20117;-60
2023/05/20 04:47:20;;;;;;;12.45;11.23;;;14.10;99.90;;;;;;5075888;28;20062;-59
2023/05/20 04:49:46;;;;;;;12.30;11.25;;;14.20;99.90;;;;;;5076980;28;20028;-60
2023/05/20 04:52:12;;;;;;;12.68;11.65;;;14.20;99.90;;;;;;5077190;28;20484;-60
2023/05/20 04:54:39;;;;;;;13.45;12.20;;;14.30;99.90;;;;;;5078126;28;20067;-59
2023/05/20 04:57:05;;;;;;;12.80;11.77;;;14.40;99.90;;;;;;5074242;28;20496;-60
2023/05/20 04:59:30;;;;;;;15.32;13.15;;;14.40;99.90;;;;;;5075387;28;20519;-60
2023/05/20 05:01:56;;;;;;;12.27;11.18;;;14.40;99.90;;;;;;5075024;28;20123;-59
2023/05/20 05:04:22;;;;;;;12.40;11.35;;;14.40;99.90;;;;;;5079225;28;20024;-59
2023/05/20 05:06:48;;;;;;;14.50;13.23;;;14.40;99.90;;;;;;5076659;28;20555;-59
2023/05/20 05:09:14;;;;;;;14.02;12.63;;;14.40;99.90;;;;;;5058593;28;20028;-59
2023/05/20 05:11:40;;;;;;;13.35;12.25;;;14.50;99.90;;;;;;5078400;28;20071;-59
2023/05/20 05:14:05;;;;;;;12.57;11.20;;;14.60;99.90;;;;;;5073378;28;20028;-60
2023/05/20 05:16:31;;;;;;;11.65;10.52;;;14.80;99.90;;;;;;5076774;28;20488;-59
2023/05/20 05:18:56;;;;;;;11.73;10.63;;;15.00;99.90;;;;;;5076312;28;20025;-59
2023/05/20 05:21:22;;;;;;;11.55;10.55;;;15.10;99.90;;;;;;5073979;28;20028;-60
2023/05/20 05:23:47;;;;;;;11.57;10.60;;;15.30;99.90;;;;;;5076740;28;20040;-59
2023/05/20 05:26:13;;;;;;;12.75;11.63;;;15.30;99.90;;;;;;5075718;28;20027;-59
2023/05/20 05:28:42;;;;;;;11.32;10.43;;;15.30;99.90;;;;;;5065323;28;20032;-60
2023/05/20 05:31:07;;;;;;;12.82;11.52;;;15.30;99.90;;;;;;5079822;28;20028;-59
2023/05/20 05:33:33;;;;;;;12.15;10.95;;;15.30;99.90;;;;;;5078568;28;20033;-60
2023/05/20 05:36:00;;;;;;;12.95;10.60;;;15.20;99.90;;;;;;5078644;28;20070;-60
2023/05/20 05:38:26;;;;;;;13.57;11.45;;;15.10;99.90;;;;;;5074411;28;20036;-59
2023/05/20 05:40:52;;;;;;;12.98;11.77;;;15.10;99.90;;;;;;5075385;28;20133;-60
2023/05/20 05:43:18;;;;;;;13.38;12.15;;;15.00;99.90;;;;;;5076077;28;20025;-59
2023/05/20 05:45:43;;;;;;;13.48;12.38;;;15.00;99.90;;;;;;5078316;28;20082;-59
2023/05/20 05:48:09;;;;;;;11.98;11.02;;;15.00;99.90;;;;;;5076693;28;20093;-60
2023/05/20 05:50:34;;;;;;;12.73;11.57;;;15.00;99.90;;;;;;5072615;28;20033;-59
2023/05/20 05:53:00;;;;;;;13.57;12.30;;;15.10;99.90;;;;;;5074684;28;20087;-59
2023/05/20 05:55:26;;;;;;;13.02;11.85;;;15.20;99.90;;;;;;5079938;28;20047;-61
2023/05/20 05:57:51;;;;;;;13.80;12.60;;;15.20;99.90;;;;;;5078322;28;20470;-59
2023/05/20 06:00:17;;;;;;;12.68;11.60;;;15.30;99.90;;;;;;5079116;28;20128;-59
2023/05/20 06:02:43;;;;;;;12.63;11.52;;;15.40;99.90;;;;;;5075987;28;20143;-59
2023/05/20 06:05:09;;;;;;;14.90;11.15;;;15.60;99.90;;;;;;5074217;28;20044;-60
2023/05/20 06:07:35;;;;;;;13.55;12.25;;;15.80;99.90;;;;;;5074261;28;20039;-59
2023/05/20 06:10:00;;;;;;;13.32;12.23;;;16.00;99.90;;;;;;5076876;28;20123;-60
2023/05/20 06:12:26;;;;;;;12.73;11.63;;;16.10;99.90;;;;;;5077038;28;20456;-60
2023/05/20 06:14:52;;;;;;;14.20;12.98;;;16.30;99.90;;;;;;5076333;28;20035;-59
2023/05/20 06:17:17;;;;;;;13.43;12.05;;;16.40;99.90;;;;;;5074700;28;20042;-60
2023/05/20 06:19:43;;;;;;;13.32;12.20;;;16.50;99.90;;;;;;5076251;28;20989;-59
2023/05/20 06:22:08;;;;;;;13.40;12.23;;;16.50;99.90;;;;;;5076265;28;20027;-59
2023/05/20 06:24:34;;;;;;;13.98;12.10;;;16.60;99.90;;;;;;5076320;28;20036;-61
2023/05/20 06:27:00;;;;;;;14.90;13.38;;;16.70;99.90;;;;;;5078719;28;20032;-59
2023/05/20 06:29:25;;;;;;;14.43;12.77;;;16.60;99.90;;;;;;5080585;28;20029;-60
2023/05/20 06:31:51;;;;;;;13.02;12.02;;;16.50;99.90;;;;;;5081704;28;20567;-60
2023/05/20 06:34:17;;;;;;;13.45;12.35;;;16.40;99.90;;;;;;5080203;28;20385;-60
2023/05/20 06:36:42;;;;;;;14.65;13.00;;;16.30;99.90;;;;;;5082806;28;20523;-60
2023/05/20 06:39:11;;;;;;;14.40;13.20;;;16.20;99.90;;;;;;5081588;28;20032;-60
2023/05/20 06:41:38;;;;;;;15.48;13.98;;;16.20;99.90;;;;;;5084150;28;20373;-60
2023/05/20 06:44:05;;;;;;;14.35;13.18;;;16.10;99.90;;;;;;5080300;28;20090;-58
2023/05/20 06:46:31;;;;;;;13.48;12.27;;;16.00;99.90;;;;;;5080146;28;20040;-60
2023/05/20 06:48:56;;;;;;;14.73;13.18;;;15.90;99.90;;;;;;5083719;28;20038;-60
2023/05/20 06:51:22;;;;;;;14.35;13.15;;;15.90;99.90;;;;;;5084029;28;20066;-59
2023/05/20 06:53:48;;;;;;;13.98;12.77;;;15.90;99.90;;;;;;5083837;28;20465;-60
2023/05/20 06:56:13;;;;;;;13.75;12.55;;;15.90;99.90;;;;;;5081532;28;20032;-59
2023/05/20 06:58:39;;;;;;;15.10;13.80;;;16.00;99.90;;;;;;5080720;28;20030;-60
2023/05/20 07:01:04;;;;;;;14.68;13.18;;;16.00;99.90;;;;;;5083172;28;20074;-60
2023/05/20 07:03:30;;;;;;;15.25;13.63;;;16.00;99.90;;;;;;5080908;28;20607;-60
2023/05/20 07:05:56;;;;;;;14.43;12.93;;;16.10;99.90;;;;;;5081849;28;20100;-59
2023/05/20 07:08:21;;;;;;;13.88;12.75;;;16.20;99.90;;;;;;5081618;28;20043;-60
2023/05/20 07:10:47;;;;;;;12.93;11.90;;;16.20;99.90;;;;;;5084717;28;20024;-59
2023/05/20 07:13:13;;;;;;;13.68;12.38;;;16.30;99.90;;;;;;5080111;28;20044;-59
2023/05/20 07:15:38;;;;;;;14.25;12.88;;;16.30;99.90;;;;;;5079080;28;20511;-58
2023/05/20 07:18:04;;;;;;;14.30;13.13;;;16.30;99.90;;;;;;5078470;28;20472;-59
2023/05/20 07:20:30;;;;;;;14.15;12.73;;;16.40;99.90;;;;;;5068778;28;20035;-60
2023/05/20 07:22:56;;;;;;;13.63;12.30;;;16.40;99.90;;;;;;5081712;28;20035;-59
2023/05/20 07:25:21;;;;;;;14.13;12.93;;;16.40;99.90;;;;;;5077743;28;20033;-60
2023/05/20 07:27:47;;;;;;;12.45;11.45;;;16.40;99.90;;;;;;5079032;28;20068;-58
2023/05/20 07:30:12;;;;;;;14.52;13.27;;;16.50;99.90;;;;;;5079118;28;20029;-60
2023/05/20 07:32:38;;;;;;;19.00;12.90;;;16.60;99.90;;;;;;5076367;28;20492;-60
2023/05/20 07:35:04;;;;;;;12.82;11.63;;;16.70;99.90;;;;;;5079242;28;20028;-60
2023/05/20 07:37:30;;;;;;;12.68;11.57;;;16.70;99.90;;;;;;5080547;28;20064;-61
2023/05/20 07:39:56;;;;;;;16.35;12.90;;;16.80;99.90;;;;;;5083957;28;20036;-60
2023/05/20 07:42:21;;;;;;;13.25;11.93;;;16.80;99.90;;;;;;5078840;28;20040;-61
2023/05/20 07:44:47;;;;;;;13.38;12.18;;;16.70;99.90;;;;;;5077697;28;20493;-59
2023/05/20 07:47:13;;;;;;;12.98;11.82;;;16.80;99.90;;;;;;5083090;28;20028;-60
2023/05/20 07:49:38;;;;;;;13.75;12.40;;;16.80;99.90;;;;;;5078666;28;20030;-59
2023/05/20 07:52:04;;;;;;;12.63;11.40;;;16.90;99.90;;;;;;5080808;28;20024;-59
2023/05/20 07:54:30;;;;;;;13.30;12.20;;;17.00;99.90;;;;;;5078428;28;20035;-60
2023/05/20 07:56:56;;;;;;;13.25;12.05;;;17.20;99.90;;;;;;5082997;28;20669;-61
2023/05/20 07:59:21;;;;;;;12.75;11.32;;;17.30;99.90;;;;;;5079853;28;20036;-60
2023/05/20 08:01:47;;;;;;;11.65;10.45;;;17.50;99.90;;;;;;5080749;28;20048;-60
2023/05/20 08:04:12;;;;;;;12.13;11.02;;;17.50;99.90;;;;;;5082244;28;20036;-61
2023/05/20 08:06:38;;;;;;;11.70;10.77;;;17.50;99.90;;;;;;5076966;28;20024;-61
2023/05/20 08:09:04;;;;;;;11.68;10.57;;;17.50;99.90;;;;;;5081525;28;20049;-60
2023/05/20 08:11:29;;;;;;;12.18;11.15;;;17.50;99.90;;;;;;5081798;28;20025;-59
2023/05/20 08:13:55;;;;;;;14.05;12.00;;;17.60;99.90;;;;;;5084167;28;20043;-60
2023/05/20 08:16:21;;;;;;;12.30;11.10;;;17.60;99.90;;;;;;5078883;28;20037;-59
2023/05/20 08:18:47;;;;;;;11.40;10.40;;;17.60;99.90;;;;;;5079006;28;20492;-60
2023/05/20 08:21:16;;;;;;;11.73;10.52;;;17.70;99.90;;;;;;5065058;28;20038;-61
2023/05/20 08:23:41;;;;;;;13.10;11.77;;;17.80;99.90;;;;;;5080919;28;20048;-60
2023/05/20 08:26:07;;;;;;;13.32;12.05;;;17.80;99.90;;;;;;5078707;28;20056;-59
2023/05/20 08:28:33;;;;;;;12.55;11.50;;;17.90;99.90;;;;;;5072586;28;20043;-60
2023/05/20 08:31:00;;;;;;;11.93;10.82;;;18.00;99.90;;;;;;5078695;28;20025;-60
2023/05/20 08:33:26;;;;;;;12.20;11.20;;;17.90;99.90;;;;;;5074041;28;20111;-61
2023/05/20 08:35:52;;;;;;;12.70;11.40;;;17.90;99.90;;;;;;5075505;28;20120;-59
2023/05/20 08:38:17;;;;;;;13.18;11.90;;;18.00;99.90;;;;;;5076612;28;20043;-60
2023/05/20 08:40:43;;;;;;;12.48;11.35;;;18.10;99.90;;;;;;5077413;28;20089;-59
2023/05/20 08:43:09;;;;;;;12.73;11.40;;;18.10;99.90;;;;;;5078339;28;20437;-61
2023/05/20 08:45:37;;;;;;;12.15;11.02;;;18.10;99.90;;;;;;5078820;28;20024;-61
2023/05/20 08:48:06;;;;;;;11.38;10.18;;;18.20;99.90;;;;;;5080580;28;20456;-61
2023/05/20 08:50:32;;;;;;;11.07;10.00;;;18.40;99.90;;;;;;5079978;28;20051;-59
2023/05/20 08:52:59;;;;;;;10.75;9.85;;;18.50;99.90;;;;;;5081810;28;20099;-61
2023/05/20 08:55:40;;;;;;;10.93;9.95;;;18.60;99.90;;;;;;5084084;28;20028;-61
2023/05/20 08:58:06;;;;;;;11.20;10.25;;;18.60;99.90;;;;;;5079895;28;20111;-60
2023/05/20 09:00:32;;;;;;;12.13;11.10;;;18.60;99.90;;;;;;5078341;28;20111;-61
2023/05/20 09:02:59;;;;;;;12.50;11.45;;;18.80;99.90;;;;;;5075693;28;20377;-60
2023/05/20 09:05:26;;;;;;;11.65;10.65;;;18.90;99.90;;;;;;5075677;28;20466;-61
2023/05/20 09:07:51;;;;;;;11.27;10.38;;;18.90;99.90;;;;;;5078842;28;20120;-61
2023/05/20 09:10:18;;;;;;;10.20;9.25;;;19.20;99.90;;;;;;5077498;28;20091;-60
2023/05/20 09:12:44;;;;;;;10.75;9.35;;;19.80;99.90;;;;;;5076260;28;20478;-61
2023/05/20 09:15:10;;;;;;;10.95;9.90;;;20.20;98.20;;;;;;5078399;28;20111;-61
2023/05/20 09:17:36;;;;;;;11.52;10.32;;;20.50;96.80;;;;;;5073638;28;20495;-60
2023/05/20 09:20:09;;;;;;;11.30;10.40;;;20.70;94.80;;;;;;5076387;28;20040;-61
2023/05/20 09:22:37;;;;;;;10.77;9.88;;;20.70;95.70;;;;;;5074996;28;20546;-61
2023/05/20 09:25:03;;;;;;;11.15;10.18;;;20.50;94.80;;;;;;5077947;28;20048;-61
2023/05/20 09:27:28;;;;;;;10.40;9.43;;;20.60;96.00;;;;;;5056682;28;20032;-60
2023/05/20 09:29:54;;;;;;;11.85;10.77;;;20.70;95.90;;;;;;5078023;28;20101;-61
2023/05/20 09:32:23;;;;;;;10.20;9.40;;;20.80;95.20;;;;;;5075924;28;20032;-60
2023/05/20 09:34:49;;;;;;;9.98;9.18;;;20.80;95.40;;;;;;5074446;28;20520;-60
2023/05/20 09:37:20;;;;;;;10.45;9.55;;;20.80;93.40;;;;;;5076593;28;20078;-60
2023/05/20 09:39:49;;;;;;;15.05;11.02;;;20.90;93.20;;;;;;5077559;28;20036;-61
2023/05/20 09:42:27;;;;;;;12.88;9.98;;;20.90;92.60;;;;;;5075368;28;20029;-61
2023/05/20 09:44:54;;;;;;;10.73;9.77;;;21.00;93.30;;;;;;5076878;28;20078;-62
2023/05/20 09:47:20;;;;;;;10.75;9.82;;;21.00;93.00;;;;;;5057938;28;20573;-60
2023/05/20 09:49:48;;;;;;;10.15;9.15;;;21.00;91.40;;;;;;5076168;28;20135;-60
2023/05/20 09:52:15;;;;;;;10.38;9.30;;;21.10;91.70;;;;;;5077389;28;20024;-60
2023/05/20 09:54:43;;;;;;;9.25;8.35;;;21.10;92.70;;;;;;5077814;28;20055;-59
2023/05/20 09:57:08;;;;;;;9.38;8.50;;;21.20;91.80;;;;;;5076619;28;20031;-60
2023/05/20 09:59:36;;;;;;;9.48;8.57;;;21.40;91.00;;;;;;5078678;28;20025;-60
2023/05/20 10:02:02;;;;;;;9.77;8.77;;;21.30;90.90;;;;;;5074868;28;20025;-59
2023/05/20 10:04:29;;;;;;;9.20;8.52;;;21.10;90.90;;;;;;5079195;28;20035;-60
2023/05/20 10:07:02;;;;;;;11.77;10.63;;;21.00;91.10;;;;;;5079621;28;20107;-61
2023/05/20 10:09:36;;;;;;;10.88;9.82;;;20.90;90.80;;;;;;5078896;28;20051;-60
2023/05/20 10:12:08;;;;;;;10.32;9.35;;;21.00;89.80;;;;;;5079435;28;20032;-60
2023/05/20 10:14:59;;;;;;;10.70;9.68;;;21.10;90.60;;;;;;5080354;28;20035;-61
2023/05/20 10:17:33;;;;;;;;;;;21.20;90.40;;;;;;5081462;28;20135;-61
2023/05/20 10:20:00;;;;;;;9.45;8.55;;;21.20;89.50;;;;;;5082731;28;19912;-61
2023/05/20 10:22:30;;;;;;;10.73;9.15;;;21.20;90.00;;;;;;5081782;28;20511;-61
2023/05/20 10:25:00;;;;;;;8.82;8.13;;;21.30;89.30;;;;;;5081942;28;20451;-62
2023/05/20 10:27:25;;;;;;;9.95;8.95;;;21.50;86.30;;;;;;5080435;28;20435;-60
2023/05/20 10:29:54;;;;;;;10.18;9.32;;;21.40;86.50;;;;;;5081496;28;20086;-61
2023/05/20 10:32:30;;;;;;;10.05;9.13;;;21.30;88.60;;;;;;5080266;28;20032;-60
2023/05/20 10:35:04;;;;;;;37.97;11.68;;;21.30;90.60;;;;;;5078108;28;20052;-61
2023/05/20 10:37:44;;;;;;;10.40;9.60;;;21.20;90.10;;;;;;5079483;28;20028;-60
2023/05/20 10:40:14;;;;;;;10.20;9.17;;;21.20;88.50;;;;;;5079272;28;20048;-60
2023/05/20 10:42:41;;;;;;;25.73;10.05;;;21.10;88.70;;;;;;5079000;28;20032;-61
2023/05/20 10:45:07;;;;;;;10.57;9.70;;;21.10;88.00;;;;;;5080575;28;20039;-59
2023/05/20 10:47:34;;;;;;;9.88;8.57;;;21.10;90.70;;;;;;5075928;28;20040;-61
2023/05/20 10:50:06;;;;;;;9.27;8.48;;;21.20;90.70;;;;;;5081503;28;20032;-60
2023/05/20 10:52:36;;;;;;;9.40;8.32;;;21.20;89.40;;;;;;5077151;28;20025;-59
2023/05/20 10:55:03;;;;;;;8.95;8.20;;;21.30;88.30;;;;;;5044917;28;20048;-61
2023/05/20 10:57:30;;;;;;;8.82;8.07;;;21.40;87.80;;;;;;5076251;28;20111;-60
2023/05/20 10:59:56;;;;;;;8.40;7.70;;;21.50;90.40;;;;;;5082399;28;20036;-60
2023/05/20 11:02:25;;;;;;;8.80;8.10;;;21.60;87.40;;;;;;5078753;28;20091;-61
2023/05/20 11:04:52;;;;;;;9.35;8.35;;;21.60;88.80;;;;;;5076849;28;20028;-60
2023/05/20 11:07:44;;;;;;;8.80;8.07;;;21.80;87.70;;;;;;5078163;28;20162;-60
2023/05/20 11:10:09;;;;;;;8.85;8.15;;;21.90;85.50;;;;;;5053321;28;20039;-60
2023/05/20 11:12:35;;;;;;;8.32;7.72;;;22.00;85.00;;;;;;5048778;28;20029;-60
2023/05/20 11:15:01;;;;;;;8.73;7.82;;;22.10;85.40;;;;;;5066714;28;20028;-61
2023/05/20 11:17:27;;;;;;;8.18;7.47;;;22.20;83.30;;;;;;5064226;28;20020;-61
2023/05/20 11:19:53;;;;;;;7.57;6.97;;;22.20;84.60;;;;;;5078788;28;20810;-60
2023/05/20 11:22:18;;;;;;;9.15;8.45;;;22.30;84.60;;;;;;5077280;28;20047;-62
2023/05/20 11:24:45;;;;;;;9.80;8.05;;;22.20;85.30;;;;;;5080831;28;20036;-62
2023/05/20 11:27:10;;;;;;;8.73;8.13;;;22.30;85.20;;;;;;5075223;28;20820;-61
2023/05/20 11:29:37;;;;;;;8.00;7.40;;;22.40;84.10;;;;;;5080647;28;20031;-62
2023/05/20 11:32:03;;;;;;;8.23;7.53;;;22.50;85.40;;;;;;5080029;28;20051;-61
2023/05/20 11:34:36;;;;;;;8.30;7.50;;;22.70;83.90;;;;;;5077281;28;20733;-63
2023/05/20 11:37:05;;;;;;;7.90;7.30;;;23.00;81.80;;;;;;5077423;28;20055;-61
2023/05/20 11:39:31;;;;;;;7.85;7.25;;;23.20;83.80;;;;;;5077074;28;20564;-61
2023/05/20 11:41:57;;;;;;;8.40;7.60;;;23.30;78.60;;;;;;5066691;28;20408;-61
2023/05/20 11:44:23;;;;;;;8.30;7.60;;;23.30;81.10;;;;;;5062158;28;20051;-60
2023/05/20 11:46:49;;;;;;;7.63;6.93;;;23.40;81.70;;;;;;5076530;28;20085;-61
2023/05/20 11:49:15;;;;;;;7.05;6.45;;;23.50;79.80;;;;;;5077324;28;20411;-61
2023/05/20 11:51:42;;;;;;;8.00;7.30;;;23.20;78.20;;;;;;5076709;28;20077;-62
2023/05/20 11:54:09;;;;;;;12.05;6.55;;;23.10;81.40;;;;;;5079411;28;20123;-61
2023/05/20 11:56:36;;;;;;;7.47;6.88;;;23.20;82.40;;;;;;5076825;28;20119;-60
2023/05/20 11:59:03;;;;;;;7.22;6.50;;;23.40;79.70;;;;;;5079565;28;20575;-59
2023/05/20 12:01:39;;;;;;;6.80;6.20;;;23.60;77.10;;;;;;5078001;28;20431;-58
2023/05/20 12:04:06;;;;;;;7.18;6.45;;;23.80;78.50;;;;;;5077241;28;20033;-58
2023/05/20 12:06:32;;;;;;;7.00;6.32;;;24.10;79.00;;;;;;5078716;28;20109;-58
2023/05/20 12:09:05;;;;;;;6.95;6.45;;;24.10;76.60;;;;;;5075084;28;20480;-58
2023/05/20 12:11:40;;;;;;;6.63;6.13;;;23.90;76.80;;;;;;5078472;28;20055;-58
2023/05/20 12:14:07;;;;;;;7.63;6.65;;;23.80;74.60;;;;;;5074760;28;20024;-58
2023/05/20 12:16:33;;;;;;;6.63;6.13;;;23.90;78.40;;;;;;5078855;28;20426;-58
2023/05/20 12:19:00;;;;;;;7.07;6.55;;;23.90;76.20;;;;;;5077997;28;20026;-59
2023/05/20 12:21:25;;;;;;;11.48;6.43;;;23.80;77.00;;;;;;5081398;28;20145;-58
2023/05/20 12:23:56;;;;;;;6.97;6.38;;;23.70;76.40;;;;;;5075942;28;20086;-59
2023/05/20 12:26:26;;;;;;;6.97;6.38;;;23.60;76.30;;;;;;5073811;28;20028;-58
2023/05/20 12:28:51;;;;;;;7.40;6.72;;;23.50;75.70;;;;;;5078216;28;20567;-59
2023/05/20 12:31:18;;;;;;;7.82;6.20;;;23.40;75.60;;;;;;5076298;28;20043;-59
2023/05/20 12:33:43;;;;;;;8.13;6.45;;;23.30;76.60;;;;;;5079546;28;20036;-59